sensor_id;sensor_type;location;lat;lon;timestamp;pressure;altitude;pressure_sealevel;temperature;humidity
51468;BME280;37545;45.302;-122.946;2023-02-28T00:01:33;98971.38;;;8.47;74.80
51468;BME280;37545;45.302;-122.946;2023-02-28T00:04:02;98967.75;;;8.31;75.55
51468;BME280;37545;45.302;-122.946;2023-02-28T00:06:30;98973.56;;;8.09;78.12
51468;BME280;37545;45.302;-122.946;2023-02-28T00:08:59;98948.34;;;7.82;81.47
51468;BME280;37545;45.302;-122.946;2023-02-28T00:11:28;98955.22;;;7.83;82.79
51468;BME280;37545;45.302;-122.946;2023-02-28T00:13:59;98949.13;;;7.76;83.21
51468;BME280;37545;45.302;-122.946;2023-02-28T00:16:27;98942.19;;;7.67;82.36
51468;BME280;37545;45.302;-122.946;2023-02-28T00:18:56;98944.75;;;7.67;84.72
51468;BME280;37545;45.302;-122.946;2023-02-28T00:21:25;98948.16;;;7.66;81.30
51468;BME280;37545;45.302;-122.946;2023-02-28T00:23:53;98941.19;;;7.56;78.67
51468;BME280;37545;45.302;-122.946;2023-02-28T00:26:22;98932.47;;;7.45;80.67
51468;BME280;37545;45.302;-122.946;2023-02-28T00:28:52;98943.66;;;7.48;80.13
51468;BME280;37545;45.302;-122.946;2023-02-28T00:31:23;98933.25;;;7.39;77.02
51468;BME280;37545;45.302;-122.946;2023-02-28T00:33:51;98931.53;;;7.38;78.95
51468;BME280;37545;45.302;-122.946;2023-02-28T00:36:20;98934.06;;;7.37;79.40
51468;BME280;37545;45.302;-122.946;2023-02-28T00:38:48;98934.91;;;7.34;79.43
51468;BME280;37545;45.302;-122.946;2023-02-28T00:41:17;98931.47;;;7.35;80.96
51468;BME280;37545;45.302;-122.946;2023-02-28T00:43:46;98934.88;;;7.32;80.20
51468;BME280;37545;45.302;-122.946;2023-02-28T00:46:14;98931.44;;;7.32;81.97
51468;BME280;37545;45.302;-122.946;2023-02-28T00:48:44;98936.56;;;7.30;83.28
51468;BME280;37545;45.302;-122.946;2023-02-28T00:51:13;98914.09;;;7.17;80.36
51468;BME280;37545;45.302;-122.946;2023-02-28T00:53:42;98930.34;;;7.14;77.96
51468;BME280;37545;45.302;-122.946;2023-02-28T00:56:10;98933.72;;;7.12;77.82
51468;BME280;37545;45.302;-122.946;2023-02-28T00:58:40;98925.09;;;7.07;75.90
51468;BME280;37545;45.302;-122.946;2023-02-28T01:01:08;98926.84;;;7.08;76.59
51468;BME280;37545;45.302;-122.946;2023-02-28T01:03:37;98924.22;;;7.06;75.70
51468;BME280;37545;45.302;-122.946;2023-02-28T01:06:07;98930.19;;;7.04;78.13
51468;BME280;37545;45.302;-122.946;2023-02-28T01:08:36;98928.41;;;7.00;79.03
51468;BME280;37545;45.302;-122.946;2023-02-28T01:11:09;98921.50;;;6.96;79.71
51468;BME280;37545;45.302;-122.946;2023-02-28T01:13:38;98911.88;;;6.82;79.41
51468;BME280;37545;45.302;-122.946;2023-02-28T01:16:07;98909.38;;;6.85;83.65
51468;BME280;37545;45.302;-122.946;2023-02-28T01:18:36;98903.34;;;6.85;86.88
51468;BME280;37545;45.302;-122.946;2023-02-28T01:21:07;98906.66;;;6.78;82.45
51468;BME280;37545;45.302;-122.946;2023-02-28T01:23:36;98907.47;;;6.75;82.93
51468;BME280;37545;45.302;-122.946;2023-02-28T01:26:06;98901.44;;;6.73;84.08
51468;BME280;37545;45.302;-122.946;2023-02-28T01:28:35;98898.88;;;6.71;84.07
51468;BME280;37545;45.302;-122.946;2023-02-28T01:31:04;98912.41;;;6.60;86.14
51468;BME280;37545;45.302;-122.946;2023-02-28T01:33:33;98918.06;;;6.40;86.02
51468;BME280;37545;45.302;-122.946;2023-02-28T01:36:03;98924.84;;;6.37;88.39
51468;BME280;37545;45.302;-122.946;2023-02-28T01:38:33;98937.53;;;6.26;91.29
51468;BME280;37545;45.302;-122.946;2023-02-28T01:41:02;98937.91;;;5.99;94.51
51468;BME280;37545;45.302;-122.946;2023-02-28T01:43:35;98947.03;;;5.86;97.67
51468;BME280;37545;45.302;-122.946;2023-02-28T01:46:20;98931.41;;;5.74;97.46
51468;BME280;37545;45.302;-122.946;2023-02-28T01:48:51;98927.78;;;5.64;98.50
51468;BME280;37545;45.302;-122.946;2023-02-28T01:51:22;98924.16;;;5.54;100.00
51468;BME280;37545;45.302;-122.946;2023-02-28T01:53:58;98923.06;;;5.41;100.00
51468;BME280;37545;45.302;-122.946;2023-02-28T01:56:29;98914.56;;;5.44;100.00
51468;BME280;37545;45.302;-122.946;2023-02-28T01:58:59;98913.84;;;5.51;100.00
51468;BME280;37545;45.302;-122.946;2023-02-28T02:01:28;98922.44;;;5.53;100.00
51468;BME280;37545;45.302;-122.946;2023-02-28T02:03:58;98918.19;;;5.55;100.00
51468;BME280;37545;45.302;-122.946;2023-02-28T02:06:30;98920.72;;;5.52;100.00
51468;BME280;37545;45.302;-122.946;2023-02-28T02:09:04;98922.41;;;5.52;100.00
51468;BME280;37545;45.302;-122.946;2023-02-28T02:11:33;98920.53;;;5.44;100.00
51468;BME280;37545;45.302;-122.946;2023-02-28T02:14:27;98916.19;;;5.40;100.00
51468;BME280;37545;45.302;-122.946;2023-02-28T02:17:11;98911.81;;;5.35;100.00
51468;BME280;37545;45.302;-122.946;2023-02-28T02:23:24;98930.91;;;5.49;100.00
51468;BME280;37545;45.302;-122.946;2023-02-28T02:26:10;98930.19;;;5.55;100.00
51468;BME280;37545;45.302;-122.946;2023-02-28T02:28:56;98933.66;;;5.58;100.00
51468;BME280;37545;45.302;-122.946;2023-02-28T02:31:51;98939.69;;;5.60;100.00
51468;BME280;37545;45.302;-122.946;2023-02-28T02:34:46;98941.44;;;5.61;100.00
51468;BME280;37545;45.302;-122.946;2023-02-28T02:37:25;98937.97;;;5.59;100.00
51468;BME280;37545;45.302;-122.946;2023-02-28T02:40:03;98937.81;;;5.53;100.00
51468;BME280;37545;45.302;-122.946;2023-02-28T02:42:40;98939.44;;;5.48;100.00
51468;BME280;37545;45.302;-122.946;2023-02-28T02:45:14;98938.59;;;5.48;100.00
51468;BME280;37545;45.302;-122.946;2023-02-28T02:47:45;98947.91;;;5.44;100.00
51468;BME280;37545;45.302;-122.946;2023-02-28T02:50:19;98951.19;;;5.37;100.00
51468;BME280;37545;45.302;-122.946;2023-02-28T02:52:53;98940.97;;;5.38;100.00
51468;BME280;37545;45.302;-122.946;2023-02-28T02:55:24;98947.75;;;5.38;100.00
51468;BME280;37545;45.302;-122.946;2023-02-28T02:57:56;98937.50;;;5.38;100.00
51468;BME280;37545;45.302;-122.946;2023-02-28T03:00:31;98936.31;;;5.22;100.00
51468;BME280;37545;45.302;-122.946;2023-02-28T03:03:02;98947.44;;;5.22;99.25
51468;BME280;37545;45.302;-122.946;2023-02-28T03:05:35;98951.59;;;5.17;97.55
51468;BME280;37545;45.302;-122.946;2023-02-28T03:08:07;98941.13;;;5.07;94.58
51468;BME280;37545;45.302;-122.946;2023-02-28T03:10:38;98947.22;;;5.12;95.23
51468;BME280;37545;45.302;-122.946;2023-02-28T03:13:15;98948.81;;;5.08;96.01
51468;BME280;37545;45.302;-122.946;2023-02-28T03:15:57;98947.16;;;5.09;97.02
51468;BME280;37545;45.302;-122.946;2023-02-28T03:18:35;98953.84;;;5.02;96.73
51468;BME280;37545;45.302;-122.946;2023-02-28T03:21:14;98961.31;;;4.94;98.10
51468;BME280;37545;45.302;-122.946;2023-02-28T03:23:53;98962.28;;;4.98;98.42
51468;BME280;37545;45.302;-122.946;2023-02-28T03:26:26;98951.00;;;4.91;98.35
51468;BME280;37545;45.302;-122.946;2023-02-28T03:29:01;98963.72;;;4.87;99.08
51468;BME280;37545;45.302;-122.946;2023-02-28T03:31:35;98955.13;;;4.85;100.00
51468;BME280;37545;45.302;-122.946;2023-02-28T03:34:09;98958.44;;;4.80;100.00
51468;BME280;37545;45.302;-122.946;2023-02-28T03:36:44;98965.22;;;4.78;100.00
51468;BME280;37545;45.302;-122.946;2023-02-28T03:39:22;98974.66;;;4.79;100.00
51468;BME280;37545;45.302;-122.946;2023-02-28T03:41:58;98972.09;;;4.79;100.00
51468;BME280;37545;45.302;-122.946;2023-02-28T03:44:30;98975.56;;;4.81;100.00
51468;BME280;37545;45.302;-122.946;2023-02-28T03:47:03;98988.03;;;4.68;100.00
51468;BME280;37545;45.302;-122.946;2023-02-28T03:49:34;98972.69;;;4.68;100.00
51468;BME280;37545;45.302;-122.946;2023-02-28T03:52:07;98974.41;;;4.69;100.00
51468;BME280;37545;45.302;-122.946;2023-02-28T03:54:40;98977.81;;;4.68;100.00
51468;BME280;37545;45.302;-122.946;2023-02-28T03:57:17;98974.34;;;4.67;100.00
51468;BME280;37545;45.302;-122.946;2023-02-28T03:59:54;98977.81;;;4.69;100.00
51468;BME280;37545;45.302;-122.946;2023-02-28T04:02:25;98978.72;;;4.70;100.00
51468;BME280;37545;45.302;-122.946;2023-02-28T04:04:54;98971.78;;;4.67;100.00
51468;BME280;37545;45.302;-122.946;2023-02-28T04:07:24;98980.25;;;4.63;100.00
51468;BME280;37545;45.302;-122.946;2023-02-28T04:10:02;98979.34;;;4.61;100.00
51468;BME280;37545;45.302;-122.946;2023-02-28T04:12:44;98981.03;;;4.60;100.00
51468;BME280;37545;45.302;-122.946;2023-02-28T04:15:13;98978.38;;;4.56;100.00
51468;BME280;37545;45.302;-122.946;2023-02-28T04:17:42;98980.09;;;4.57;100.00
51468;BME280;37545;45.302;-122.946;2023-02-28T04:20:11;98990.28;;;4.55;100.00
51468;BME280;37545;45.302;-122.946;2023-02-28T04:22:41;98998.75;;;4.51;100.00
51468;BME280;37545;45.302;-122.946;2023-02-28T04:25:10;98992.59;;;4.45;100.00
51468;BME280;37545;45.302;-122.946;2023-02-28T04:27:39;98987.44;;;4.43;100.00
51468;BME280;37545;45.302;-122.946;2023-02-28T04:30:09;98991.59;;;4.39;100.00
51468;BME280;37545;45.302;-122.946;2023-02-28T04:32:37;98989.13;;;4.43;100.00
51468;BME280;37545;45.302;-122.946;2023-02-28T04:35:07;99001.03;;;4.40;100.00
51468;BME280;37545;45.302;-122.946;2023-02-28T04:37:36;98993.09;;;4.31;100.00
51468;BME280;37545;45.302;-122.946;2023-02-28T04:40:07;99000.00;;;4.34;100.00
51468;BME280;37545;45.302;-122.946;2023-02-28T04:42:36;98996.56;;;4.33;100.00
51468;BME280;37545;45.302;-122.946;2023-02-28T04:45:06;99013.78;;;4.39;100.00
51468;BME280;37545;45.302;-122.946;2023-02-28T04:47:36;99006.88;;;4.36;100.00
51468;BME280;37545;45.302;-122.946;2023-02-28T04:50:05;99011.16;;;4.36;100.00
51468;BME280;37545;45.302;-122.946;2023-02-28T04:52:35;99011.03;;;4.31;100.00
51468;BME280;37545;45.302;-122.946;2023-02-28T04:55:06;99014.38;;;4.29;100.00
51468;BME280;37545;45.302;-122.946;2023-02-28T04:57:34;99026.13;;;4.22;100.00
51468;BME280;37545;45.302;-122.946;2023-02-28T05:00:04;99033.91;;;4.25;100.00
51468;BME280;37545;45.302;-122.946;2023-02-28T05:02:37;99028.66;;;4.20;100.00
51468;BME280;37545;45.302;-122.946;2023-02-28T05:05:06;99038.94;;;4.22;100.00
51468;BME280;37545;45.302;-122.946;2023-02-28T05:07:35;99034.69;;;4.23;100.00
51468;BME280;37545;45.302;-122.946;2023-02-28T05:10:06;99041.19;;;4.11;100.00
51468;BME280;37545;45.302;-122.946;2023-02-28T05:12:35;99052.16;;;4.06;100.00
51468;BME280;37545;45.302;-122.946;2023-02-28T05:15:06;99055.63;;;4.08;100.00
51468;BME280;37545;45.302;-122.946;2023-02-28T05:17:34;99060.56;;;4.02;100.00
51468;BME280;37545;45.302;-122.946;2023-02-28T05:20:03;99056.22;;;3.99;100.00
51468;BME280;37545;45.302;-122.946;2023-02-28T05:22:32;99067.31;;;3.99;100.00
51468;BME280;37545;45.302;-122.946;2023-02-28T05:25:01;99072.31;;;3.95;100.00
51468;BME280;37545;45.302;-122.946;2023-02-28T05:27:31;99082.50;;;3.93;100.00
51468;BME280;37545;45.302;-122.946;2023-02-28T05:30:00;99088.47;;;3.94;100.00
51468;BME280;37545;45.302;-122.946;2023-02-28T05:32:29;99080.66;;;3.89;100.00
51468;BME280;37545;45.302;-122.946;2023-02-28T05:34:58;99085.81;;;3.91;100.00
51468;BME280;37545;45.302;-122.946;2023-02-28T05:37:27;99091.84;;;3.93;100.00
51468;BME280;37545;45.302;-122.946;2023-02-28T05:39:55;99100.41;;;3.93;100.00
51468;BME280;37545;45.302;-122.946;2023-02-28T05:42:24;99096.97;;;3.93;100.00
51468;BME280;37545;45.302;-122.946;2023-02-28T05:44:54;99108.94;;;3.94;100.00
51468;BME280;37545;45.302;-122.946;2023-02-28T05:47:23;99103.81;;;3.94;100.00
51468;BME280;37545;45.302;-122.946;2023-02-28T05:49:51;99111.56;;;3.95;100.00
51468;BME280;37545;45.302;-122.946;2023-02-28T05:52:20;99119.16;;;3.94;100.00
51468;BME280;37545;45.302;-122.946;2023-02-28T05:54:49;99123.34;;;3.90;100.00
51468;BME280;37545;45.302;-122.946;2023-02-28T05:57:17;99129.91;;;3.82;100.00
51468;BME280;37545;45.302;-122.946;2023-02-28T05:59:46;99125.50;;;3.76;100.00
51468;BME280;37545;45.302;-122.946;2023-02-28T06:02:17;99132.81;;;3.66;100.00
51468;BME280;37545;45.302;-122.946;2023-02-28T06:04:46;99141.47;;;3.69;100.00
51468;BME280;37545;45.302;-122.946;2023-02-28T06:07:15;99137.22;;;3.70;100.00
51468;BME280;37545;45.302;-122.946;2023-02-28T06:09:43;99143.97;;;3.68;100.00
51468;BME280;37545;45.302;-122.946;2023-02-28T06:12:12;99148.09;;;3.63;100.00
51468;BME280;37545;45.302;-122.946;2023-02-28T06:14:41;99151.44;;;3.62;100.00
51468;BME280;37545;45.302;-122.946;2023-02-28T06:17:10;99151.38;;;3.59;100.00
51468;BME280;37545;45.302;-122.946;2023-02-28T06:19:40;99156.41;;;3.57;100.00
51468;BME280;37545;45.302;-122.946;2023-02-28T06:22:09;99166.72;;;3.59;100.00
51468;BME280;37545;45.302;-122.946;2023-02-28T06:24:37;99171.75;;;3.55;100.00
51468;BME280;37545;45.302;-122.946;2023-02-28T06:27:06;99166.47;;;3.51;100.00
51468;BME280;37545;45.302;-122.946;2023-02-28T06:29:35;99169.81;;;3.48;100.00
51468;BME280;37545;45.302;-122.946;2023-02-28T06:32:10;99163.81;;;3.48;100.00
51468;BME280;37545;45.302;-122.946;2023-02-28T06:34:41;99164.44;;;3.41;100.00
51468;BME280;37545;45.302;-122.946;2023-02-28T06:37:09;99173.88;;;3.43;100.00
51468;BME280;37545;45.302;-122.946;2023-02-28T06:39:38;99177.34;;;3.44;100.00
51468;BME280;37545;45.302;-122.946;2023-02-28T06:42:06;99170.41;;;3.41;100.00
51468;BME280;37545;45.302;-122.946;2023-02-28T06:44:35;99177.41;;;3.47;100.00
51468;BME280;37545;45.302;-122.946;2023-02-28T06:47:04;99179.81;;;3.42;100.00
51468;BME280;37545;45.302;-122.946;2023-02-28T06:49:34;99190.06;;;3.42;100.00
51468;BME280;37545;45.302;-122.946;2023-02-28T06:52:05;99196.03;;;3.43;100.00
51468;BME280;37545;45.302;-122.946;2023-02-28T06:54:36;99207.13;;;3.43;100.00
51468;BME280;37545;45.302;-122.946;2023-02-28T06:57:05;99215.63;;;3.42;100.00
51468;BME280;37545;45.302;-122.946;2023-02-28T06:59:34;99207.09;;;3.42;100.00
51468;BME280;37545;45.302;-122.946;2023-02-28T07:02:02;99213.94;;;3.43;100.00
51468;BME280;37545;45.302;-122.946;2023-02-28T07:04:32;99208.00;;;3.44;100.00
51468;BME280;37545;45.302;-122.946;2023-02-28T07:07:01;99208.81;;;3.43;100.00
51468;BME280;37545;45.302;-122.946;2023-02-28T07:09:31;99213.13;;;3.44;100.00
51468;BME280;37545;45.302;-122.946;2023-02-28T07:12:00;99220.75;;;3.42;100.00
51468;BME280;37545;45.302;-122.946;2023-02-28T07:14:29;99215.53;;;3.39;100.00
51468;BME280;37545;45.302;-122.946;2023-02-28T07:16:58;99229.97;;;3.39;100.00
51468;BME280;37545;45.302;-122.946;2023-02-28T07:19:26;99237.41;;;3.31;100.00
51468;BME280;37545;45.302;-122.946;2023-02-28T07:21:55;99240.78;;;3.30;100.00
51468;BME280;37545;45.302;-122.946;2023-02-28T07:24:23;99259.38;;;3.26;100.00
51468;BME280;37545;45.302;-122.946;2023-02-28T07:26:56;99256.66;;;3.21;100.00
51468;BME280;37545;45.302;-122.946;2023-02-28T07:29:25;99260.03;;;3.20;100.00
51468;BME280;37545;45.302;-122.946;2023-02-28T07:31:55;99251.66;;;3.24;100.00
51468;BME280;37545;45.302;-122.946;2023-02-28T07:34:24;99251.50;;;3.20;100.00
51468;BME280;37545;45.302;-122.946;2023-02-28T07:36:53;99254.91;;;3.20;100.00
51468;BME280;37545;45.302;-122.946;2023-02-28T07:39:22;99257.31;;;3.15;100.00
51468;BME280;37545;45.302;-122.946;2023-02-28T07:41:51;99253.19;;;3.19;100.00
51468;BME280;37545;45.302;-122.946;2023-02-28T07:44:21;99263.03;;;3.08;100.00
51468;BME280;37545;45.302;-122.946;2023-02-28T07:46:50;99251.78;;;3.03;100.00
51468;BME280;37545;45.302;-122.946;2023-02-28T07:49:19;99253.41;;;3.01;100.00
51468;BME280;37545;45.302;-122.946;2023-02-28T07:51:47;99256.13;;;3.06;100.00
51468;BME280;37545;45.302;-122.946;2023-02-28T07:54:16;99255.28;;;3.07;100.00
51468;BME280;37545;45.302;-122.946;2023-02-28T07:56:45;99263.09;;;3.10;100.00
51468;BME280;37545;45.302;-122.946;2023-02-28T07:59:13;99263.88;;;3.09;100.00
51468;BME280;37545;45.302;-122.946;2023-02-28T08:01:44;99263.84;;;3.07;100.00
51468;BME280;37545;45.302;-122.946;2023-02-28T08:04:12;99277.34;;;3.03;100.00
51468;BME280;37545;45.302;-122.946;2023-02-28T08:06:41;99292.28;;;2.92;100.00
51468;BME280;37545;45.302;-122.946;2023-02-28T08:09:09;99300.94;;;2.96;100.00
51468;BME280;37545;45.302;-122.946;2023-02-28T08:11:44;99310.06;;;2.89;100.00
51468;BME280;37545;45.302;-122.946;2023-02-28T08:14:19;99320.72;;;2.79;100.00
51468;BME280;37545;45.302;-122.946;2023-02-28T08:16:50;99335.19;;;2.79;100.00
51468;BME280;37545;45.302;-122.946;2023-02-28T08:19:18;99338.31;;;2.71;100.00
51468;BME280;37545;45.302;-122.946;2023-02-28T08:21:47;99338.50;;;2.76;100.00
51468;BME280;37545;45.302;-122.946;2023-02-28T08:24:15;99342.97;;;2.82;100.00
51468;BME280;37545;45.302;-122.946;2023-02-28T08:26:44;99345.72;;;2.86;100.00
51468;BME280;37545;45.302;-122.946;2023-02-28T08:29:13;99347.34;;;2.84;100.00
51468;BME280;37545;45.302;-122.946;2023-02-28T08:31:41;99344.63;;;2.80;100.00
51468;BME280;37545;45.302;-122.946;2023-02-28T08:34:13;99360.63;;;2.76;100.00
51468;BME280;37545;45.302;-122.946;2023-02-28T08:36:42;99353.91;;;2.78;100.00
51468;BME280;37545;45.302;-122.946;2023-02-28T08:39:11;99361.78;;;2.84;100.00
51468;BME280;37545;45.302;-122.946;2023-02-28T08:41:41;99360.03;;;2.83;100.00
51468;BME280;37545;45.302;-122.946;2023-02-28T08:44:10;99360.16;;;2.86;100.00
51468;BME280;37545;45.302;-122.946;2023-02-28T08:46:39;99364.31;;;2.84;100.00
51468;BME280;37545;45.302;-122.946;2023-02-28T08:49:09;99371.25;;;2.86;100.00
51468;BME280;37545;45.302;-122.946;2023-02-28T08:51:40;99377.50;;;2.94;100.00
51468;BME280;37545;45.302;-122.946;2023-02-28T08:54:09;99372.56;;;2.99;100.00
51468;BME280;37545;45.302;-122.946;2023-02-28T08:56:39;99387.09;;;3.00;100.00
51468;BME280;37545;45.302;-122.946;2023-02-28T08:59:09;99393.09;;;3.01;100.00
51468;BME280;37545;45.302;-122.946;2023-02-28T09:01:38;99392.31;;;3.03;100.00
51468;BME280;37545;45.302;-122.946;2023-02-28T09:04:07;99388.25;;;3.08;100.00
51468;BME280;37545;45.302;-122.946;2023-02-28T09:06:37;99390.03;;;3.11;100.00
51468;BME280;37545;45.302;-122.946;2023-02-28T09:09:07;99395.22;;;3.12;100.00
51468;BME280;37545;45.302;-122.946;2023-02-28T09:11:36;99402.22;;;3.18;100.00
51468;BME280;37545;45.302;-122.946;2023-02-28T09:14:05;99405.44;;;3.12;100.00
51468;BME280;37545;45.302;-122.946;2023-02-28T09:16:33;99402.53;;;3.03;100.00
51468;BME280;37545;45.302;-122.946;2023-02-28T09:19:02;99405.84;;;3.01;100.00
51468;BME280;37545;45.302;-122.946;2023-02-28T09:21:31;99411.84;;;3.01;100.00
51468;BME280;37545;45.302;-122.946;2023-02-28T09:23:59;99418.66;;;3.02;100.00
51468;BME280;37545;45.302;-122.946;2023-02-28T09:26:29;99431.59;;;3.05;100.00
51468;BME280;37545;45.302;-122.946;2023-02-28T09:28:58;99422.06;;;3.01;100.00
51468;BME280;37545;45.302;-122.946;2023-02-28T09:31:28;99431.53;;;3.04;100.00
51468;BME280;37545;45.302;-122.946;2023-02-28T09:33:58;99441.81;;;3.05;100.00
51468;BME280;37545;45.302;-122.946;2023-02-28T09:36:27;99459.03;;;3.11;100.00
51468;BME280;37545;45.302;-122.946;2023-02-28T09:38:59;99447.19;;;3.13;100.00
51468;BME280;37545;45.302;-122.946;2023-02-28T09:41:36;99458.06;;;3.07;100.00
51468;BME280;37545;45.302;-122.946;2023-02-28T09:44:09;99455.53;;;3.07;100.00
51468;BME280;37545;45.302;-122.946;2023-02-28T09:46:44;99447.59;;;3.01;100.00
51468;BME280;37545;45.302;-122.946;2023-02-28T09:49:16;99482.19;;;3.14;100.00
51468;BME280;37545;45.302;-122.946;2023-02-28T09:51:50;99493.38;;;3.18;100.00
51468;BME280;37545;45.302;-122.946;2023-02-28T09:54:21;99493.28;;;3.14;100.00
51468;BME280;37545;45.302;-122.946;2023-02-28T09:56:55;99504.53;;;3.20;100.00
51468;BME280;37545;45.302;-122.946;2023-02-28T09:59:39;99518.25;;;3.22;100.00
51468;BME280;37545;45.302;-122.946;2023-02-28T10:02:21;99521.44;;;3.16;100.00
51468;BME280;37545;45.302;-122.946;2023-02-28T10:04:56;99507.78;;;3.15;100.00
51468;BME280;37545;45.302;-122.946;2023-02-28T10:07:39;99492.25;;;3.09;100.00
51468;BME280;37545;45.302;-122.946;2023-02-28T10:10:18;99486.22;;;3.09;100.00
51468;BME280;37545;45.302;-122.946;2023-02-28T10:12:52;99474.16;;;3.05;100.00
51468;BME280;37545;45.302;-122.946;2023-02-28T10:15:24;99480.84;;;3.01;100.00
51468;BME280;37545;45.302;-122.946;2023-02-28T10:17:57;99485.13;;;3.02;100.00
51468;BME280;37545;45.302;-122.946;2023-02-28T10:20:28;99488.59;;;3.04;100.00
51468;BME280;37545;45.302;-122.946;2023-02-28T10:23:00;99498.16;;;3.08;100.00
51468;BME280;37545;45.302;-122.946;2023-02-28T10:25:35;99502.38;;;3.08;100.00
51468;BME280;37545;45.302;-122.946;2023-02-28T10:28:10;99493.09;;;3.10;100.00
51468;BME280;37545;45.302;-122.946;2023-02-28T10:30:41;99489.59;;;3.08;100.00
51468;BME280;37545;45.302;-122.946;2023-02-28T10:33:19;99502.56;;;3.12;100.00
51468;BME280;37545;45.302;-122.946;2023-02-28T10:35:49;99499.94;;;3.11;100.00
51468;BME280;37545;45.302;-122.946;2023-02-28T10:38:25;99496.59;;;3.12;100.00
51468;BME280;37545;45.302;-122.946;2023-02-28T10:41:05;99497.34;;;3.09;100.00
51468;BME280;37545;45.302;-122.946;2023-02-28T10:43:37;99505.69;;;3.05;100.00
51468;BME280;37545;45.302;-122.946;2023-02-28T10:46:13;99515.00;;;3.03;100.00
51468;BME280;37545;45.302;-122.946;2023-02-28T10:49:02;99514.81;;;2.99;100.00
51468;BME280;37545;45.302;-122.946;2023-02-28T10:51:39;99510.44;;;2.96;100.00
51468;BME280;37545;45.302;-122.946;2023-02-28T10:54:16;99511.13;;;2.92;100.00
51468;BME280;37545;45.302;-122.946;2023-02-28T10:56:45;99510.84;;;2.84;100.00
51468;BME280;37545;45.302;-122.946;2023-02-28T10:59:31;99509.81;;;2.81;100.00
51468;BME280;37545;45.302;-122.946;2023-02-28T11:01:59;99507.19;;;2.79;100.00
51468;BME280;37545;45.302;-122.946;2023-02-28T11:04:36;99520.16;;;2.84;100.00
51468;BME280;37545;45.302;-122.946;2023-02-28T11:07:20;99519.28;;;2.83;100.00
51468;BME280;37545;45.302;-122.946;2023-02-28T11:09:50;99520.97;;;2.83;100.00
51468;BME280;37545;45.302;-122.946;2023-02-28T11:12:25;99515.03;;;2.84;100.00
51468;BME280;37545;45.302;-122.946;2023-02-28T11:14:59;99520.16;;;2.84;100.00
51468;BME280;37545;45.302;-122.946;2023-02-28T11:17:30;99516.66;;;2.82;100.00
51468;BME280;37545;45.302;-122.946;2023-02-28T11:20:02;99505.72;;;2.84;100.00
51468;BME280;37545;45.302;-122.946;2023-02-28T11:22:37;99501.47;;;2.85;100.00
51468;BME280;37545;45.302;-122.946;2023-02-28T11:25:09;99497.31;;;2.87;100.00
51468;BME280;37545;45.302;-122.946;2023-02-28T11:27:45;99497.22;;;2.85;100.00
51468;BME280;37545;45.302;-122.946;2023-02-28T11:30:35;99487.09;;;2.87;100.00
51468;BME280;37545;45.302;-122.946;2023-02-28T11:33:20;99476.78;;;2.85;100.00
51468;BME280;37545;45.302;-122.946;2023-02-28T11:35:50;99476.28;;;2.94;100.00
51468;BME280;37545;45.302;-122.946;2023-02-28T11:38:19;99482.44;;;2.99;100.00
51468;BME280;37545;45.302;-122.946;2023-02-28T11:41:04;99481.66;;;3.00;100.00
51468;BME280;37545;45.302;-122.946;2023-02-28T11:43:44;99475.97;;;3.07;100.00
51468;BME280;37545;45.302;-122.946;2023-02-28T11:46:22;99482.97;;;3.13;100.00
51468;BME280;37545;45.302;-122.946;2023-02-28T11:49:01;99480.53;;;3.16;100.00
51468;BME280;37545;45.302;-122.946;2023-02-28T11:51:34;99472.84;;;3.14;100.00
51468;BME280;37545;45.302;-122.946;2023-02-28T11:54:24;99473.63;;;3.13;100.00
51468;BME280;37545;45.302;-122.946;2023-02-28T11:56:57;99463.13;;;3.06;100.00
51468;BME280;37545;45.302;-122.946;2023-02-28T11:59:33;99460.56;;;3.06;100.00
51468;BME280;37545;45.302;-122.946;2023-02-28T12:02:25;99462.38;;;3.08;100.00
51468;BME280;37545;45.302;-122.946;2023-02-28T12:05:21;99459.13;;;3.12;100.00
51468;BME280;37545;45.302;-122.946;2023-02-28T12:08:02;99451.44;;;3.12;100.00
51468;BME280;37545;45.302;-122.946;2023-02-28T12:10:36;99460.81;;;3.12;100.00
51468;BME280;37545;45.302;-122.946;2023-02-28T12:13:15;99460.81;;;3.12;100.00
51468;BME280;37545;45.302;-122.946;2023-02-28T12:16:12;99457.31;;;3.10;100.00
51468;BME280;37545;45.302;-122.946;2023-02-28T12:18:58;99456.56;;;3.12;100.00
51468;BME280;37545;45.302;-122.946;2023-02-28T12:21:34;99454.94;;;3.14;100.00
51468;BME280;37545;45.302;-122.946;2023-02-28T12:24:19;99454.00;;;3.12;100.00
51468;BME280;37545;45.302;-122.946;2023-02-28T12:26:51;99458.19;;;3.10;100.00
51468;BME280;37545;45.302;-122.946;2023-02-28T12:29:24;99447.97;;;3.10;100.00
51468;BME280;37545;45.302;-122.946;2023-02-28T12:31:58;99451.56;;;3.15;100.00
51468;BME280;37545;45.302;-122.946;2023-02-28T12:34:35;99451.44;;;3.12;100.00
51468;BME280;37545;45.302;-122.946;2023-02-28T12:37:09;99455.72;;;3.13;100.00
51468;BME280;37545;45.302;-122.946;2023-02-28T12:39:43;99446.34;;;3.12;100.00
51468;BME280;37545;45.302;-122.946;2023-02-28T12:42:15;99447.97;;;3.10;100.00
51468;BME280;37545;45.302;-122.946;2023-02-28T12:44:56;99445.16;;;3.04;100.00
51468;BME280;37545;45.302;-122.946;2023-02-28T12:47:25;99447.78;;;3.06;100.00
51468;BME280;37545;45.302;-122.946;2023-02-28T12:49:58;99439.13;;;3.02;100.00
51468;BME280;37545;45.302;-122.946;2023-02-28T12:52:34;99440.88;;;3.03;100.00
51468;BME280;37545;45.302;-122.946;2023-02-28T12:55:09;99449.34;;;3.02;100.00
51468;BME280;37545;45.302;-122.946;2023-02-28T12:57:43;99447.50;;;2.98;100.00
51468;BME280;37545;45.302;-122.946;2023-02-28T13:00:16;99443.31;;;3.00;100.00
51468;BME280;37545;45.302;-122.946;2023-02-28T13:06:17;99441.63;;;3.01;100.00